createdAt,value
2018-07-02T00:01:05.732Z,17.60
2018-07-02T00:03:34.325Z,17.40
2018-07-02T00:06:14.081Z,17.30
2018-07-02T00:08:42.942Z,17.20
2018-07-02T00:11:11.520Z,17.20
2018-07-02T00:13:40.157Z,17.20
2018-07-02T00:16:08.747Z,17.00
2018-07-02T00:18:37.235Z,17.10
2018-07-02T00:21:05.866Z,16.90
2018-07-02T00:26:02.541Z,17.10
2018-07-02T00:28:31.126Z,17.10
2018-07-02T00:30:59.575Z,17.10
2018-07-02T00:33:28.108Z,17.20
2018-07-02T00:35:56.762Z,17.10
2018-07-02T00:40:53.712Z,16.90
2018-07-02T00:43:22.260Z,16.80
2018-07-02T00:45:50.843Z,16.60
2018-07-02T00:48:19.273Z,16.60
2018-07-02T00:50:48.617Z,16.60
2018-07-02T00:53:17.225Z,16.40
2018-07-02T00:55:45.709Z,16.50
2018-07-02T00:58:14.283Z,16.40
2018-07-02T01:00:42.938Z,16.40
2018-07-02T01:03:11.496Z,16.50
2018-07-02T01:05:40.143Z,16.30
2018-07-02T01:08:08.836Z,16.20
2018-07-02T01:10:37.356Z,16.40
2018-07-02T01:13:06.094Z,16.40
2018-07-02T01:15:34.616Z,16.40
2018-07-02T01:18:03.228Z,16.50
2018-07-02T01:20:31.738Z,16.50
2018-07-02T01:23:00.359Z,16.50
2018-07-02T01:25:28.998Z,16.50
2018-07-02T01:27:57.772Z,16.30
2018-07-02T01:30:26.240Z,16.20
2018-07-02T01:32:54.679Z,16.00
2018-07-02T01:35:23.103Z,15.90
2018-07-02T01:37:51.581Z,16.00
2018-07-02T01:40:20.177Z,16.00
2018-07-02T01:42:48.661Z,16.00
2018-07-02T01:45:17.190Z,16.00
2018-07-02T01:50:13.978Z,15.70
2018-07-02T01:52:42.573Z,15.50
2018-07-02T01:55:11.021Z,15.40
2018-07-02T02:00:08.227Z,15.30
2018-07-02T02:02:36.765Z,15.30
2018-07-02T02:05:05.428Z,15.30
2018-07-02T02:07:33.912Z,15.30
2018-07-02T02:10:02.417Z,15.20
2018-07-02T02:12:31.299Z,15.20
2018-07-02T02:14:59.728Z,15.30
2018-07-02T02:17:28.230Z,15.30
2018-07-02T02:19:56.655Z,15.50
2018-07-02T02:22:25.226Z,15.30
2018-07-02T02:24:53.695Z,15.30
2018-07-02T02:27:22.186Z,15.40
2018-07-02T02:29:50.659Z,15.50
2018-07-02T02:32:19.203Z,15.60
2018-07-02T02:34:47.802Z,15.50
2018-07-02T02:37:16.441Z,15.20
2018-07-02T02:39:45.047Z,15.10
2018-07-02T02:42:13.560Z,15.00
2018-07-02T02:44:42.080Z,15.00
2018-07-02T02:47:10.634Z,14.80
2018-07-02T02:49:39.186Z,14.70
2018-07-02T02:52:07.654Z,14.70
2018-07-02T02:54:36.184Z,14.60
2018-07-02T02:57:04.946Z,14.50
2018-07-02T02:59:33.508Z,14.50
2018-07-02T03:02:01.900Z,14.40
2018-07-02T03:04:30.483Z,14.40
2018-07-02T03:06:58.861Z,14.50
2018-07-02T03:09:27.436Z,14.60
2018-07-02T03:11:56.508Z,14.70
2018-07-02T03:14:25.041Z,14.50
2018-07-02T03:16:53.662Z,14.40
2018-07-02T03:19:22.265Z,14.40
2018-07-02T03:21:50.814Z,14.40
2018-07-02T03:24:19.357Z,14.50
2018-07-02T03:26:48.063Z,14.50
2018-07-02T03:29:16.710Z,14.50
2018-07-02T03:31:45.293Z,14.50
2018-07-02T03:34:14.070Z,14.50
2018-07-02T03:39:35.626Z,14.50
2018-07-02T03:42:04.426Z,14.60
2018-07-02T03:44:33.256Z,14.60
2018-07-02T03:47:02.742Z,14.60
2018-07-02T03:49:33.303Z,14.50
2018-07-02T03:52:02.085Z,14.50
2018-07-02T03:54:30.878Z,14.50
2018-07-02T03:56:59.834Z,14.40
2018-07-02T03:59:30.566Z,14.50
2018-07-02T04:02:00.046Z,14.40
2018-07-02T04:04:28.859Z,14.40
2018-07-02T04:06:57.461Z,14.50
2018-07-02T04:09:26.192Z,14.40
2018-07-02T04:14:22.984Z,14.40
2018-07-02T04:16:51.411Z,14.40
2018-07-02T04:19:19.810Z,14.40
2018-07-02T04:21:48.216Z,14.30
2018-07-02T04:24:16.881Z,14.40
2018-07-02T04:26:45.524Z,14.50
2018-07-02T04:29:13.942Z,14.50
2018-07-02T04:31:42.391Z,14.50
2018-07-02T04:34:10.917Z,14.60
2018-07-02T04:36:39.325Z,14.60
2018-07-02T04:39:08.722Z,14.60
2018-07-02T04:41:37.247Z,14.60
2018-07-02T04:44:06.067Z,14.70
2018-07-02T04:46:34.487Z,14.80
2018-07-02T04:49:02.903Z,14.90
2018-07-02T04:51:31.336Z,15.10
2018-07-02T04:53:59.712Z,15.00
2018-07-02T04:56:28.157Z,15.10
2018-07-02T04:58:56.962Z,15.20
2018-07-02T05:01:25.453Z,15.20
2018-07-02T05:03:54.065Z,15.20
2018-07-02T05:06:22.427Z,15.20
2018-07-02T05:08:50.860Z,15.00
2018-07-02T05:11:19.340Z,15.00
2018-07-02T05:13:47.959Z,14.80
2018-07-02T05:16:16.498Z,14.90
2018-07-02T05:18:45.011Z,14.90
2018-07-02T05:21:13.430Z,15.10
2018-07-02T05:23:41.873Z,15.20
2018-07-02T05:26:10.477Z,15.20
2018-07-02T05:28:38.986Z,15.30
2018-07-02T05:31:07.899Z,15.40
2018-07-02T05:33:36.390Z,15.50
2018-07-02T05:36:05.592Z,15.50
2018-07-02T05:38:34.379Z,15.40
2018-07-02T05:41:03.242Z,15.50
2018-07-02T05:43:31.736Z,15.60
2018-07-02T05:46:00.622Z,15.60
2018-07-02T05:48:29.178Z,15.60
2018-07-02T05:50:57.821Z,15.60
2018-07-02T05:53:26.482Z,15.70
2018-07-02T05:55:55.013Z,15.80
2018-07-02T05:58:23.514Z,15.80
2018-07-02T06:00:52.220Z,15.80
2018-07-02T06:03:20.793Z,16.00
2018-07-02T06:05:49.578Z,16.00
2018-07-02T06:08:18.093Z,16.00
2018-07-02T06:10:46.573Z,16.00
2018-07-02T06:13:15.056Z,16.20
2018-07-02T06:15:43.544Z,16.30
2018-07-02T06:18:11.996Z,16.50
2018-07-02T06:20:40.665Z,16.40
2018-07-02T06:23:09.287Z,16.50
2018-07-02T06:25:37.960Z,16.70
2018-07-02T06:28:06.646Z,16.70
2018-07-02T06:30:35.146Z,16.80
2018-07-02T06:33:03.584Z,16.90
2018-07-02T06:38:00.137Z,17.20
2018-07-02T06:40:28.971Z,17.30
2018-07-02T06:42:57.898Z,17.30
2018-07-02T06:45:26.385Z,17.40
2018-07-02T06:47:57.252Z,17.60
2018-07-02T06:50:25.678Z,17.60
2018-07-02T06:52:54.418Z,17.70
2018-07-02T06:55:22.985Z,17.70
2018-07-02T07:00:19.818Z,17.90
2018-07-02T07:02:48.256Z,18.00
2018-07-02T07:05:16.697Z,18.20
2018-07-02T07:07:45.155Z,18.30
2018-07-02T07:10:14.028Z,18.40
2018-07-02T07:12:42.565Z,18.50
2018-07-02T07:17:39.867Z,18.60
2018-07-02T07:20:08.593Z,18.80
2018-07-02T07:22:37.095Z,18.80
2018-07-02T07:25:05.726Z,18.80
2018-07-02T07:27:34.204Z,18.90
2018-07-02T07:30:02.936Z,19.00
2018-07-02T07:32:31.538Z,19.20
2018-07-02T07:35:00.069Z,19.30
2018-07-02T07:37:28.844Z,19.50
2018-07-02T07:39:57.662Z,19.60
2018-07-02T07:42:26.255Z,19.70
2018-07-02T07:44:54.787Z,19.60
2018-07-02T07:47:23.638Z,19.90
2018-07-02T07:49:52.374Z,20.10
2018-07-02T07:52:21.013Z,20.10
2018-07-02T07:54:49.511Z,20.20
2018-07-02T07:57:18.047Z,20.30
2018-07-02T07:59:46.634Z,20.50
2018-07-02T08:02:15.350Z,20.60
2018-07-02T08:04:43.889Z,20.70
2018-07-02T08:07:12.736Z,20.90
2018-07-02T08:12:09.616Z,21.00
2018-07-02T08:14:38.535Z,20.80
2018-07-02T08:17:06.988Z,21.00
2018-07-02T08:19:35.510Z,21.20
2018-07-02T08:22:04.072Z,21.30
2018-07-02T08:24:32.634Z,21.40
2018-07-02T08:27:01.133Z,21.40
2018-07-02T08:29:32.320Z,21.40
2018-07-02T08:32:00.888Z,21.50
2018-07-02T08:34:29.626Z,21.60
2018-07-02T08:36:58.440Z,21.90
2018-07-02T08:39:27.016Z,22.00
2018-07-02T08:41:55.480Z,22.10
2018-07-02T08:44:23.963Z,22.30
2018-07-02T08:49:21.218Z,22.10
2018-07-02T08:51:49.757Z,21.90
2018-07-02T08:54:18.231Z,21.90
2018-07-02T08:56:46.890Z,22.10
2018-07-02T08:59:18.758Z,22.20
2018-07-02T09:01:47.212Z,22.40
2018-07-02T09:06:44.017Z,22.90
2018-07-02T09:09:13.251Z,23.30
2018-07-02T09:11:41.933Z,23.40
2018-07-02T09:14:10.531Z,23.80
2018-07-02T09:16:39.070Z,22.90
2018-07-02T09:19:07.575Z,22.50
2018-07-02T09:21:36.188Z,22.80
2018-07-02T09:24:08.545Z,23.00
2018-07-02T09:26:37.185Z,23.10
2018-07-02T09:29:05.945Z,22.70
2018-07-02T09:31:34.482Z,22.70
2018-07-02T09:34:03.429Z,22.40
2018-07-02T09:36:32.472Z,22.50
2018-07-02T09:39:01.197Z,22.90
2018-07-02T09:43:58.126Z,23.00
2018-07-02T09:46:27.969Z,22.90
2018-07-02T09:48:58.573Z,22.50
2018-07-02T09:51:26.976Z,22.80
2018-07-02T09:53:55.580Z,23.40
2018-07-02T09:56:24.357Z,23.60
2018-07-02T09:58:52.784Z,23.00
2018-07-02T10:01:21.211Z,23.00
2018-07-02T10:03:49.789Z,23.00
2018-07-02T10:06:18.808Z,23.50
2018-07-02T10:08:47.679Z,23.90
2018-07-02T10:11:16.222Z,23.50
2018-07-02T10:13:44.924Z,23.00
2018-07-02T10:16:13.341Z,23.00
2018-07-02T10:21:10.116Z,23.60
2018-07-02T10:26:07.338Z,23.40
2018-07-02T10:28:36.110Z,23.10
2018-07-02T10:31:04.608Z,23.40
2018-07-02T10:33:32.971Z,23.80
2018-07-02T10:36:01.390Z,24.10
2018-07-02T10:38:29.960Z,24.60
2018-07-02T10:40:58.759Z,24.70
2018-07-02T10:43:27.270Z,23.80
2018-07-02T10:45:55.740Z,24.50
2018-07-02T10:50:52.418Z,25.00
2018-07-02T10:53:20.884Z,25.10
2018-07-02T10:55:49.284Z,25.00
2018-07-02T10:58:18.109Z,25.20
2018-07-02T11:00:46.514Z,25.40
2018-07-02T11:03:14.990Z,24.50
2018-07-02T11:05:43.367Z,24.00
2018-07-02T11:08:11.833Z,23.80
2018-07-02T11:10:40.275Z,24.30
2018-07-02T11:13:12.402Z,24.60
2018-07-02T11:15:42.357Z,24.50
2018-07-02T11:18:10.733Z,24.70
2018-07-02T11:20:40.218Z,25.20
2018-07-02T11:23:12.853Z,24.90
2018-07-02T11:25:42.526Z,25.00
2018-07-02T11:28:11.082Z,25.30
2018-07-02T11:33:08.149Z,25.60
2018-07-02T11:38:05.386Z,25.60
2018-07-02T11:40:34.133Z,25.80
2018-07-02T11:43:05.764Z,24.90
2018-07-02T11:45:37.175Z,24.40
2018-07-02T11:48:06.422Z,25.20
2018-07-02T11:50:35.160Z,25.90
2018-07-02T11:53:03.828Z,26.40
2018-07-02T11:55:32.874Z,26.50
2018-07-02T11:58:01.804Z,26.80
2018-07-02T12:00:30.845Z,27.10
2018-07-02T12:02:59.477Z,26.60
2018-07-02T12:05:28.025Z,26.20
2018-07-02T12:07:56.833Z,26.40
2018-07-02T12:12:53.748Z,27.00
2018-07-02T12:15:22.760Z,27.20
2018-07-02T12:17:51.688Z,27.10
2018-07-02T12:20:20.764Z,27.00
2018-07-02T12:22:51.066Z,26.20
2018-07-02T12:25:20.046Z,26.20
2018-07-02T12:27:49.032Z,25.70
2018-07-02T12:30:20.649Z,25.80
2018-07-02T12:32:49.380Z,25.80
2018-07-02T12:35:18.298Z,26.20
2018-07-02T12:37:47.046Z,26.40
2018-07-02T12:40:18.227Z,26.50
2018-07-02T12:45:22.568Z,26.60
2018-07-02T12:47:53.434Z,26.20
2018-07-02T12:50:22.161Z,26.20
2018-07-02T12:52:50.987Z,25.80
2018-07-02T13:00:16.498Z,26.70
2018-07-02T13:02:45.281Z,25.90
2018-07-02T13:05:14.085Z,25.80
2018-07-02T13:07:43.583Z,26.30
2018-07-02T13:10:12.640Z,26.50
2018-07-02T13:12:41.097Z,26.60
2018-07-02T13:15:09.629Z,26.30
2018-07-02T13:17:38.709Z,26.10
2018-07-02T13:20:07.188Z,26.30
2018-07-02T13:22:36.463Z,26.40
2018-07-02T13:25:05.202Z,26.80
2018-07-02T13:27:34.039Z,27.10
2018-07-02T13:30:02.650Z,27.00
2018-07-02T13:32:31.551Z,26.70
2018-07-02T13:35:01.051Z,26.00
2018-07-02T13:37:30.576Z,26.30
2018-07-02T13:40:08.217Z,26.00
2018-07-02T13:51:21.238Z,25.60
2018-07-02T13:54:04.265Z,25.70
2018-07-02T13:59:25.474Z,26.10
2018-07-02T14:01:54.470Z,25.90
2018-07-02T14:04:23.765Z,26.30
2018-07-02T14:06:53.463Z,26.40
2018-07-02T14:11:50.891Z,25.80
2018-07-02T14:14:23.821Z,26.00
2018-07-02T14:16:53.188Z,25.80
2018-07-02T14:27:27.295Z,25.50
2018-07-02T14:38:31.701Z,25.30
2018-07-02T14:41:11.447Z,25.40
2018-07-02T14:43:48.885Z,25.40
2018-07-02T14:46:20.698Z,25.60
2018-07-02T14:48:52.549Z,25.70
2018-07-02T14:51:22.873Z,25.80
2018-07-02T14:54:11.709Z,25.90
2018-07-02T14:56:41.761Z,25.90
2018-07-02T14:59:10.842Z,25.60
2018-07-02T15:01:48.248Z,25.70
2018-07-02T15:04:17.344Z,25.50
2018-07-02T15:07:08.476Z,25.60
2018-07-02T15:09:41.247Z,25.40
2018-07-02T15:12:10.530Z,25.50
2018-07-02T15:14:39.681Z,25.70
2018-07-02T15:17:30.649Z,25.50
2018-07-02T15:52:32.318Z,25.40
